sensor_id;sensor_type;location;lat;lon;timestamp;P1;durP1;ratioP1;P2;durP2;ratioP2
4575;SDS011;2300;51.874;8.430;2023-03-09T00:01:39;1999.90;;;999.90;;
4575;SDS011;2300;51.874;8.430;2023-03-09T00:04:06;1999.90;;;999.90;;
4575;SDS011;2300;51.874;8.430;2023-03-09T00:06:37;1999.90;;;999.90;;
4575;SDS011;2300;51.874;8.430;2023-03-09T00:09:04;1999.90;;;999.90;;
4575;SDS011;2300;51.874;8.430;2023-03-09T00:11:31;1999.90;;;999.90;;
4575;SDS011;2300;51.874;8.430;2023-03-09T00:13:58;1999.90;;;999.90;;
4575;SDS011;2300;51.874;8.430;2023-03-09T00:16:25;1999.90;;;999.90;;
4575;SDS011;2300;51.874;8.430;2023-03-09T00:18:55;1999.90;;;999.90;;
4575;SDS011;2300;51.874;8.430;2023-03-09T00:21:23;1999.90;;;999.90;;
4575;SDS011;2300;51.874;8.430;2023-03-09T00:24:01;1999.90;;;999.90;;
4575;SDS011;2300;51.874;8.430;2023-03-09T00:26:29;1999.90;;;999.90;;
4575;SDS011;2300;51.874;8.430;2023-03-09T00:28:56;1999.90;;;999.90;;
4575;SDS011;2300;51.874;8.430;2023-03-09T00:31:22;1999.90;;;999.90;;
4575;SDS011;2300;51.874;8.430;2023-03-09T00:33:49;1999.90;;;999.90;;
4575;SDS011;2300;51.874;8.430;2023-03-09T00:36:17;1999.90;;;999.90;;
4575;SDS011;2300;51.874;8.430;2023-03-09T00:38:47;1999.90;;;999.90;;
4575;SDS011;2300;51.874;8.430;2023-03-09T00:41:15;1999.90;;;999.90;;
4575;SDS011;2300;51.874;8.430;2023-03-09T00:43:42;1999.90;;;999.90;;
4575;SDS011;2300;51.874;8.430;2023-03-09T00:46:09;1999.90;;;999.90;;
4575;SDS011;2300;51.874;8.430;2023-03-09T00:48:36;1999.90;;;999.90;;
4575;SDS011;2300;51.874;8.430;2023-03-09T00:51:03;1999.90;;;999.90;;
4575;SDS011;2300;51.874;8.430;2023-03-09T00:53:31;1999.90;;;999.90;;
4575;SDS011;2300;51.874;8.430;2023-03-09T00:55:59;1999.90;;;999.90;;
4575;SDS011;2300;51.874;8.430;2023-03-09T00:58:26;1999.90;;;999.90;;
4575;SDS011;2300;51.874;8.430;2023-03-09T01:00:53;1999.90;;;999.90;;
4575;SDS011;2300;51.874;8.430;2023-03-09T01:03:19;1999.90;;;999.90;;
4575;SDS011;2300;51.874;8.430;2023-03-09T01:05:46;1999.90;;;999.90;;
4575;SDS011;2300;51.874;8.430;2023-03-09T01:08:12;1999.90;;;999.90;;
4575;SDS011;2300;51.874;8.430;2023-03-09T01:10:40;1999.90;;;999.90;;
4575;SDS011;2300;51.874;8.430;2023-03-09T01:13:07;1999.90;;;999.90;;
4575;SDS011;2300;51.874;8.430;2023-03-09T01:15:35;1999.90;;;999.90;;
4575;SDS011;2300;51.874;8.430;2023-03-09T01:18:01;1999.90;;;999.90;;
4575;SDS011;2300;51.874;8.430;2023-03-09T01:20:28;1999.90;;;999.90;;
4575;SDS011;2300;51.874;8.430;2023-03-09T01:22:54;1999.90;;;999.90;;
4575;SDS011;2300;51.874;8.430;2023-03-09T01:25:21;1999.90;;;999.90;;
4575;SDS011;2300;51.874;8.430;2023-03-09T01:27:49;1999.90;;;999.90;;
4575;SDS011;2300;51.874;8.430;2023-03-09T01:30:17;1999.90;;;999.90;;
4575;SDS011;2300;51.874;8.430;2023-03-09T01:32:43;1999.90;;;999.90;;
4575;SDS011;2300;51.874;8.430;2023-03-09T01:35:10;1999.90;;;999.90;;
4575;SDS011;2300;51.874;8.430;2023-03-09T01:37:36;1999.90;;;999.90;;
4575;SDS011;2300;51.874;8.430;2023-03-09T01:40:03;1999.90;;;999.90;;
4575;SDS011;2300;51.874;8.430;2023-03-09T01:42:32;1999.90;;;999.90;;
4575;SDS011;2300;51.874;8.430;2023-03-09T01:46:10;1999.90;;;999.90;;
4575;SDS011;2300;51.874;8.430;2023-03-09T01:48:16;1999.90;;;999.90;;
4575;SDS011;2300;51.874;8.430;2023-03-09T01:50:42;1999.90;;;999.90;;
4575;SDS011;2300;51.874;8.430;2023-03-09T01:53:10;1999.90;;;999.90;;
4575;SDS011;2300;51.874;8.430;2023-03-09T01:55:41;1999.90;;;999.90;;
4575;SDS011;2300;51.874;8.430;2023-03-09T01:58:13;1999.90;;;999.90;;
4575;SDS011;2300;51.874;8.430;2023-03-09T02:00:48;1999.90;;;999.90;;
4575;SDS011;2300;51.874;8.430;2023-03-09T02:03:17;1999.90;;;999.90;;
4575;SDS011;2300;51.874;8.430;2023-03-09T02:05:48;1999.90;;;999.90;;
4575;SDS011;2300;51.874;8.430;2023-03-09T02:08:17;1999.90;;;999.90;;
4575;SDS011;2300;51.874;8.430;2023-03-09T02:10:46;1999.90;;;999.90;;
4575;SDS011;2300;51.874;8.430;2023-03-09T02:13:17;1999.90;;;999.90;;
4575;SDS011;2300;51.874;8.430;2023-03-09T02:15:47;1999.90;;;999.90;;
4575;SDS011;2300;51.874;8.430;2023-03-09T02:18:14;1999.90;;;999.90;;
4575;SDS011;2300;51.874;8.430;2023-03-09T02:20:42;1999.90;;;999.90;;
4575;SDS011;2300;51.874;8.430;2023-03-09T02:23:18;1999.90;;;999.90;;
4575;SDS011;2300;51.874;8.430;2023-03-09T02:25:53;1999.90;;;999.90;;
4575;SDS011;2300;51.874;8.430;2023-03-09T02:28:24;1999.90;;;999.90;;
4575;SDS011;2300;51.874;8.430;2023-03-09T02:30:50;1999.90;;;999.90;;
4575;SDS011;2300;51.874;8.430;2023-03-09T02:33:22;1999.90;;;999.90;;
4575;SDS011;2300;51.874;8.430;2023-03-09T02:35:51;1999.90;;;999.90;;
4575;SDS011;2300;51.874;8.430;2023-03-09T02:38:18;1999.90;;;999.90;;
4575;SDS011;2300;51.874;8.430;2023-03-09T02:40:44;1999.90;;;999.90;;
4575;SDS011;2300;51.874;8.430;2023-03-09T02:43:12;1999.90;;;999.90;;
4575;SDS011;2300;51.874;8.430;2023-03-09T02:45:40;1999.90;;;999.90;;
4575;SDS011;2300;51.874;8.430;2023-03-09T02:48:06;1999.90;;;999.90;;
4575;SDS011;2300;51.874;8.430;2023-03-09T02:50:33;1999.90;;;999.90;;
4575;SDS011;2300;51.874;8.430;2023-03-09T02:52:59;1999.90;;;999.90;;
4575;SDS011;2300;51.874;8.430;2023-03-09T02:55:26;1999.90;;;999.90;;
4575;SDS011;2300;51.874;8.430;2023-03-09T02:57:52;1999.90;;;999.90;;
4575;SDS011;2300;51.874;8.430;2023-03-09T03:00:19;1999.90;;;999.90;;
4575;SDS011;2300;51.874;8.430;2023-03-09T03:02:48;1999.90;;;999.90;;
4575;SDS011;2300;51.874;8.430;2023-03-09T03:05:15;1999.90;;;999.90;;
4575;SDS011;2300;51.874;8.430;2023-03-09T03:07:42;1999.90;;;999.90;;
4575;SDS011;2300;51.874;8.430;2023-03-09T03:10:09;1999.90;;;999.90;;
4575;SDS011;2300;51.874;8.430;2023-03-09T03:12:36;1999.90;;;999.90;;
4575;SDS011;2300;51.874;8.430;2023-03-09T03:15:03;1999.90;;;999.90;;
4575;SDS011;2300;51.874;8.430;2023-03-09T03:17:31;1999.90;;;999.90;;
4575;SDS011;2300;51.874;8.430;2023-03-09T03:19:59;1999.90;;;999.90;;
4575;SDS011;2300;51.874;8.430;2023-03-09T03:22:25;1999.90;;;999.90;;
4575;SDS011;2300;51.874;8.430;2023-03-09T03:24:52;1999.90;;;999.90;;
4575;SDS011;2300;51.874;8.430;2023-03-09T03:27:18;1999.90;;;999.90;;
4575;SDS011;2300;51.874;8.430;2023-03-09T03:29:45;1999.90;;;999.90;;
4575;SDS011;2300;51.874;8.430;2023-03-09T03:32:11;1999.90;;;999.90;;
4575;SDS011;2300;51.874;8.430;2023-03-09T03:34:38;1999.90;;;999.90;;
4575;SDS011;2300;51.874;8.430;2023-03-09T03:37:06;1999.90;;;999.90;;
4575;SDS011;2300;51.874;8.430;2023-03-09T03:39:32;1999.90;;;999.90;;
4575;SDS011;2300;51.874;8.430;2023-03-09T03:41:59;1999.90;;;999.90;;
4575;SDS011;2300;51.874;8.430;2023-03-09T03:44:25;1999.90;;;999.90;;
4575;SDS011;2300;51.874;8.430;2023-03-09T03:46:51;1999.90;;;999.90;;
4575;SDS011;2300;51.874;8.430;2023-03-09T03:49:18;1999.90;;;999.90;;
4575;SDS011;2300;51.874;8.430;2023-03-09T03:51:46;1999.90;;;999.90;;
4575;SDS011;2300;51.874;8.430;2023-03-09T03:54:14;1999.90;;;999.90;;
4575;SDS011;2300;51.874;8.430;2023-03-09T03:56:40;1999.90;;;999.90;;
4575;SDS011;2300;51.874;8.430;2023-03-09T03:59:07;1999.90;;;999.90;;
4575;SDS011;2300;51.874;8.430;2023-03-09T04:01:33;1999.90;;;999.90;;
4575;SDS011;2300;51.874;8.430;2023-03-09T04:04:00;1999.90;;;999.90;;
4575;SDS011;2300;51.874;8.430;2023-03-09T04:06:26;1999.90;;;999.90;;
4575;SDS011;2300;51.874;8.430;2023-03-09T04:08:53;1999.90;;;999.90;;
4575;SDS011;2300;51.874;8.430;2023-03-09T04:11:20;1999.90;;;999.90;;
4575;SDS011;2300;51.874;8.430;2023-03-09T04:13:47;1999.90;;;999.90;;
4575;SDS011;2300;51.874;8.430;2023-03-09T04:16:14;1999.90;;;999.90;;
4575;SDS011;2300;51.874;8.430;2023-03-09T04:18:40;1999.90;;;999.90;;
4575;SDS011;2300;51.874;8.430;2023-03-09T04:21:07;1999.90;;;999.90;;
4575;SDS011;2300;51.874;8.430;2023-03-09T04:23:33;1999.90;;;999.90;;
4575;SDS011;2300;51.874;8.430;2023-03-09T04:26:00;1999.90;;;999.90;;
4575;SDS011;2300;51.874;8.430;2023-03-09T04:28:29;1999.90;;;999.90;;
4575;SDS011;2300;51.874;8.430;2023-03-09T04:30:56;1999.90;;;999.90;;
4575;SDS011;2300;51.874;8.430;2023-03-09T04:33:22;1999.90;;;999.90;;
4575;SDS011;2300;51.874;8.430;2023-03-09T04:35:49;1999.90;;;999.90;;
4575;SDS011;2300;51.874;8.430;2023-03-09T04:38:15;1999.90;;;999.90;;
4575;SDS011;2300;51.874;8.430;2023-03-09T04:40:42;1999.90;;;999.90;;
4575;SDS011;2300;51.874;8.430;2023-03-09T04:43:08;1999.90;;;999.90;;
4575;SDS011;2300;51.874;8.430;2023-03-09T04:45:36;1999.90;;;999.90;;
4575;SDS011;2300;51.874;8.430;2023-03-09T04:48:03;1999.90;;;999.90;;
4575;SDS011;2300;51.874;8.430;2023-03-09T04:50:29;1999.90;;;999.90;;
4575;SDS011;2300;51.874;8.430;2023-03-09T04:52:56;1999.90;;;999.90;;
4575;SDS011;2300;51.874;8.430;2023-03-09T04:55:22;1999.90;;;999.90;;
4575;SDS011;2300;51.874;8.430;2023-03-09T04:57:49;1999.90;;;999.90;;
4575;SDS011;2300;51.874;8.430;2023-03-09T05:00:16;1999.90;;;999.90;;
4575;SDS011;2300;51.874;8.430;2023-03-09T05:02:44;1999.90;;;999.90;;
4575;SDS011;2300;51.874;8.430;2023-03-09T05:05:11;1999.90;;;999.90;;
4575;SDS011;2300;51.874;8.430;2023-03-09T05:07:37;1999.90;;;999.90;;
4575;SDS011;2300;51.874;8.430;2023-03-09T05:10:04;1999.90;;;999.90;;
4575;SDS011;2300;51.874;8.430;2023-03-09T05:12:31;1999.90;;;999.90;;
4575;SDS011;2300;51.874;8.430;2023-03-09T05:14:58;1999.90;;;999.90;;
4575;SDS011;2300;51.874;8.430;2023-03-09T05:17:24;1999.90;;;999.90;;
4575;SDS011;2300;51.874;8.430;2023-03-09T05:19:52;1360.23;;;691.47;;
4575;SDS011;2300;51.874;8.430;2023-03-09T05:22:19;79.37;;;72.87;;
4575;SDS011;2300;51.874;8.430;2023-03-09T05:24:46;80.33;;;74.10;;
4575;SDS011;2300;51.874;8.430;2023-03-09T05:27:12;1999.90;;;999.90;;
4575;SDS011;2300;51.874;8.430;2023-03-09T05:29:39;77.80;;;72.03;;
4575;SDS011;2300;51.874;8.430;2023-03-09T05:32:06;1999.90;;;999.90;;
4575;SDS011;2300;51.874;8.430;2023-03-09T05:34:33;1999.90;;;999.90;;
4575;SDS011;2300;51.874;8.430;2023-03-09T05:37:01;75.90;;;69.77;;
4575;SDS011;2300;51.874;8.430;2023-03-09T05:39:27;77.33;;;70.60;;
4575;SDS011;2300;51.874;8.430;2023-03-09T05:41:54;76.03;;;69.73;;
4575;SDS011;2300;51.874;8.430;2023-03-09T05:44:20;75.83;;;69.50;;
4575;SDS011;2300;51.874;8.430;2023-03-09T05:46:48;75.03;;;68.70;;
4575;SDS011;2300;51.874;8.430;2023-03-09T05:49:14;73.07;;;66.97;;
4575;SDS011;2300;51.874;8.430;2023-03-09T05:51:40;76.83;;;70.20;;
4575;SDS011;2300;51.874;8.430;2023-03-09T05:54:08;77.37;;;70.90;;
4575;SDS011;2300;51.874;8.430;2023-03-09T05:56:35;79.83;;;73.10;;
4575;SDS011;2300;51.874;8.430;2023-03-09T05:59:01;77.20;;;70.80;;
4575;SDS011;2300;51.874;8.430;2023-03-09T06:01:28;80.50;;;73.60;;
4575;SDS011;2300;51.874;8.430;2023-03-09T06:03:55;76.87;;;70.17;;
4575;SDS011;2300;51.874;8.430;2023-03-09T06:06:22;75.13;;;68.63;;
4575;SDS011;2300;51.874;8.430;2023-03-09T06:08:49;77.27;;;70.43;;
4575;SDS011;2300;51.874;8.430;2023-03-09T06:11:17;77.10;;;70.60;;
4575;SDS011;2300;51.874;8.430;2023-03-09T06:13:43;76.90;;;69.73;;
4575;SDS011;2300;51.874;8.430;2023-03-09T06:16:12;76.90;;;70.37;;
4575;SDS011;2300;51.874;8.430;2023-03-09T06:18:40;78.77;;;71.63;;
4575;SDS011;2300;51.874;8.430;2023-03-09T06:21:07;77.63;;;70.90;;
4575;SDS011;2300;51.874;8.430;2023-03-09T06:23:34;78.07;;;71.10;;
4575;SDS011;2300;51.874;8.430;2023-03-09T06:26:01;81.13;;;73.83;;
4575;SDS011;2300;51.874;8.430;2023-03-09T06:28:30;80.57;;;73.47;;
4575;SDS011;2300;51.874;8.430;2023-03-09T06:30:56;79.10;;;72.47;;
4575;SDS011;2300;51.874;8.430;2023-03-09T06:33:23;78.53;;;71.43;;
4575;SDS011;2300;51.874;8.430;2023-03-09T06:35:49;76.77;;;70.00;;
4575;SDS011;2300;51.874;8.430;2023-03-09T06:38:16;73.17;;;66.33;;
4575;SDS011;2300;51.874;8.430;2023-03-09T06:40:42;74.77;;;67.47;;
4575;SDS011;2300;51.874;8.430;2023-03-09T06:43:10;72.27;;;65.37;;
4575;SDS011;2300;51.874;8.430;2023-03-09T06:45:38;68.70;;;62.03;;
4575;SDS011;2300;51.874;8.430;2023-03-09T06:48:04;71.90;;;65.13;;
4575;SDS011;2300;51.874;8.430;2023-03-09T06:50:31;70.27;;;63.50;;
4575;SDS011;2300;51.874;8.430;2023-03-09T06:52:57;67.33;;;61.03;;
4575;SDS011;2300;51.874;8.430;2023-03-09T06:55:24;66.37;;;59.83;;
4575;SDS011;2300;51.874;8.430;2023-03-09T06:57:50;63.97;;;57.57;;
4575;SDS011;2300;51.874;8.430;2023-03-09T07:00:17;67.50;;;61.13;;
4575;SDS011;2300;51.874;8.430;2023-03-09T07:02:45;64.43;;;58.03;;
4575;SDS011;2300;51.874;8.430;2023-03-09T07:05:12;66.50;;;60.20;;
4575;SDS011;2300;51.874;8.430;2023-03-09T07:07:38;63.33;;;57.47;;
4575;SDS011;2300;51.874;8.430;2023-03-09T07:10:08;64.40;;;58.10;;
4575;SDS011;2300;51.874;8.430;2023-03-09T07:12:35;63.33;;;57.37;;
4575;SDS011;2300;51.874;8.430;2023-03-09T07:15:02;62.47;;;56.73;;
4575;SDS011;2300;51.874;8.430;2023-03-09T07:17:29;60.80;;;55.07;;
4575;SDS011;2300;51.874;8.430;2023-03-09T07:19:57;59.10;;;53.30;;
4575;SDS011;2300;51.874;8.430;2023-03-09T07:22:23;58.63;;;53.20;;
4575;SDS011;2300;51.874;8.430;2023-03-09T07:24:50;61.83;;;56.03;;
4575;SDS011;2300;51.874;8.430;2023-03-09T07:27:16;60.23;;;54.83;;
4575;SDS011;2300;51.874;8.430;2023-03-09T07:29:44;60.83;;;55.33;;
4575;SDS011;2300;51.874;8.430;2023-03-09T07:32:11;61.97;;;56.73;;
4575;SDS011;2300;51.874;8.430;2023-03-09T07:34:37;56.67;;;51.47;;
4575;SDS011;2300;51.874;8.430;2023-03-09T07:37:05;59.47;;;54.23;;
4575;SDS011;2300;51.874;8.430;2023-03-09T07:39:32;57.17;;;51.87;;
4575;SDS011;2300;51.874;8.430;2023-03-09T07:41:59;51.90;;;47.03;;
4575;SDS011;2300;51.874;8.430;2023-03-09T07:44:27;55.80;;;50.80;;
4575;SDS011;2300;51.874;8.430;2023-03-09T07:46:53;55.40;;;50.13;;
4575;SDS011;2300;51.874;8.430;2023-03-09T07:49:20;52.73;;;47.50;;
4575;SDS011;2300;51.874;8.430;2023-03-09T07:51:47;53.30;;;48.17;;
4575;SDS011;2300;51.874;8.430;2023-03-09T07:54:14;53.37;;;48.03;;
4575;SDS011;2300;51.874;8.430;2023-03-09T07:56:41;54.07;;;49.00;;
4575;SDS011;2300;51.874;8.430;2023-03-09T07:59:12;49.13;;;44.73;;
4575;SDS011;2300;51.874;8.430;2023-03-09T08:01:40;54.20;;;49.60;;
4575;SDS011;2300;51.874;8.430;2023-03-09T08:04:06;57.30;;;52.17;;
4575;SDS011;2300;51.874;8.430;2023-03-09T08:06:33;57.60;;;52.43;;
4575;SDS011;2300;51.874;8.430;2023-03-09T08:08:59;53.23;;;48.53;;
4575;SDS011;2300;51.874;8.430;2023-03-09T08:11:27;51.77;;;47.03;;
4575;SDS011;2300;51.874;8.430;2023-03-09T08:13:54;52.67;;;47.97;;
4575;SDS011;2300;51.874;8.430;2023-03-09T08:16:20;59.33;;;53.80;;
4575;SDS011;2300;51.874;8.430;2023-03-09T08:18:47;57.53;;;52.27;;
4575;SDS011;2300;51.874;8.430;2023-03-09T08:21:14;53.07;;;47.80;;
4575;SDS011;2300;51.874;8.430;2023-03-09T08:23:40;55.47;;;50.63;;
4575;SDS011;2300;51.874;8.430;2023-03-09T08:26:09;56.47;;;51.47;;
4575;SDS011;2300;51.874;8.430;2023-03-09T08:28:39;58.00;;;53.03;;
4575;SDS011;2300;51.874;8.430;2023-03-09T08:31:08;57.97;;;52.77;;
4575;SDS011;2300;51.874;8.430;2023-03-09T08:33:35;52.20;;;47.50;;
4575;SDS011;2300;51.874;8.430;2023-03-09T08:36:09;56.20;;;51.03;;
4575;SDS011;2300;51.874;8.430;2023-03-09T08:38:36;57.17;;;52.10;;
4575;SDS011;2300;51.874;8.430;2023-03-09T08:41:03;57.27;;;52.07;;
4575;SDS011;2300;51.874;8.430;2023-03-09T08:43:30;54.50;;;49.40;;
4575;SDS011;2300;51.874;8.430;2023-03-09T08:45:57;57.37;;;52.43;;
4575;SDS011;2300;51.874;8.430;2023-03-09T08:48:24;58.20;;;52.87;;
4575;SDS011;2300;51.874;8.430;2023-03-09T08:50:50;54.53;;;49.37;;
4575;SDS011;2300;51.874;8.430;2023-03-09T08:53:17;53.23;;;47.90;;
4575;SDS011;2300;51.874;8.430;2023-03-09T08:55:44;51.73;;;46.83;;
4575;SDS011;2300;51.874;8.430;2023-03-09T08:58:10;54.17;;;49.30;;
4575;SDS011;2300;51.874;8.430;2023-03-09T09:00:37;53.90;;;49.23;;
4575;SDS011;2300;51.874;8.430;2023-03-09T09:03:05;56.97;;;51.90;;
4575;SDS011;2300;51.874;8.430;2023-03-09T09:05:31;59.20;;;54.23;;
4575;SDS011;2300;51.874;8.430;2023-03-09T09:08:00;57.00;;;52.00;;
4575;SDS011;2300;51.874;8.430;2023-03-09T09:10:26;58.37;;;53.33;;
4575;SDS011;2300;51.874;8.430;2023-03-09T09:12:53;55.90;;;50.67;;
4575;SDS011;2300;51.874;8.430;2023-03-09T09:15:19;58.63;;;52.87;;
4575;SDS011;2300;51.874;8.430;2023-03-09T09:17:46;60.73;;;55.33;;
4575;SDS011;2300;51.874;8.430;2023-03-09T09:20:13;60.00;;;54.60;;
4575;SDS011;2300;51.874;8.430;2023-03-09T09:22:40;62.23;;;56.60;;
4575;SDS011;2300;51.874;8.430;2023-03-09T09:25:07;60.33;;;54.73;;
4575;SDS011;2300;51.874;8.430;2023-03-09T09:27:35;57.63;;;52.37;;
4575;SDS011;2300;51.874;8.430;2023-03-09T09:30:02;57.77;;;52.70;;
4575;SDS011;2300;51.874;8.430;2023-03-09T09:32:28;58.77;;;53.50;;
4575;SDS011;2300;51.874;8.430;2023-03-09T09:34:55;58.97;;;53.87;;
4575;SDS011;2300;51.874;8.430;2023-03-09T09:37:24;60.27;;;54.83;;
4575;SDS011;2300;51.874;8.430;2023-03-09T09:39:53;58.70;;;53.40;;
4575;SDS011;2300;51.874;8.430;2023-03-09T09:42:24;60.07;;;54.53;;
4575;SDS011;2300;51.874;8.430;2023-03-09T09:44:54;58.40;;;53.27;;
4575;SDS011;2300;51.874;8.430;2023-03-09T09:47:23;57.33;;;52.50;;
4575;SDS011;2300;51.874;8.430;2023-03-09T09:49:52;56.87;;;52.07;;
4575;SDS011;2300;51.874;8.430;2023-03-09T09:52:38;57.83;;;52.70;;
4575;SDS011;2300;51.874;8.430;2023-03-09T09:55:15;58.63;;;53.13;;
4575;SDS011;2300;51.874;8.430;2023-03-09T09:57:45;56.57;;;51.47;;
4575;SDS011;2300;51.874;8.430;2023-03-09T10:00:14;57.30;;;52.17;;
4575;SDS011;2300;51.874;8.430;2023-03-09T10:03:05;55.83;;;50.83;;
4575;SDS011;2300;51.874;8.430;2023-03-09T10:05:37;54.07;;;49.30;;
4575;SDS011;2300;51.874;8.430;2023-03-09T10:08:15;54.50;;;49.57;;
4575;SDS011;2300;51.874;8.430;2023-03-09T10:10:48;51.63;;;47.07;;
4575;SDS011;2300;51.874;8.430;2023-03-09T10:13:18;52.43;;;47.67;;
4575;SDS011;2300;51.874;8.430;2023-03-09T10:15:50;49.97;;;45.53;;
4575;SDS011;2300;51.874;8.430;2023-03-09T10:18:18;52.40;;;47.60;;
4575;SDS011;2300;51.874;8.430;2023-03-09T10:20:50;49.57;;;45.07;;
4575;SDS011;2300;51.874;8.430;2023-03-09T10:23:21;49.27;;;44.80;;
4575;SDS011;2300;51.874;8.430;2023-03-09T10:25:54;47.27;;;43.13;;
4575;SDS011;2300;51.874;8.430;2023-03-09T10:28:27;50.07;;;45.53;;
4575;SDS011;2300;51.874;8.430;2023-03-09T10:31:00;49.27;;;44.73;;
4575;SDS011;2300;51.874;8.430;2023-03-09T10:33:31;52.27;;;47.37;;
4575;SDS011;2300;51.874;8.430;2023-03-09T10:36:06;51.60;;;46.90;;
4575;SDS011;2300;51.874;8.430;2023-03-09T10:38:38;49.63;;;45.37;;
4575;SDS011;2300;51.874;8.430;2023-03-09T10:41:09;50.03;;;45.53;;
4575;SDS011;2300;51.874;8.430;2023-03-09T10:43:42;49.60;;;45.10;;
4575;SDS011;2300;51.874;8.430;2023-03-09T10:46:11;49.80;;;45.30;;
4575;SDS011;2300;51.874;8.430;2023-03-09T10:48:39;49.10;;;44.90;;
4575;SDS011;2300;51.874;8.430;2023-03-09T10:51:20;49.80;;;45.27;;
4575;SDS011;2300;51.874;8.430;2023-03-09T10:53:51;49.83;;;45.50;;
4575;SDS011;2300;51.874;8.430;2023-03-09T10:56:19;46.87;;;42.83;;
4575;SDS011;2300;51.874;8.430;2023-03-09T10:58:49;47.97;;;43.97;;
4575;SDS011;2300;51.874;8.430;2023-03-09T11:01:34;47.83;;;43.67;;
4575;SDS011;2300;51.874;8.430;2023-03-09T11:04:03;49.50;;;45.30;;
4575;SDS011;2300;51.874;8.430;2023-03-09T11:07:00;50.37;;;45.83;;
4575;SDS011;2300;51.874;8.430;2023-03-09T11:09:30;47.47;;;43.17;;
4575;SDS011;2300;51.874;8.430;2023-03-09T11:14:54;45.33;;;41.47;;
4575;SDS011;2300;51.874;8.430;2023-03-09T11:17:27;45.57;;;41.60;;
4575;SDS011;2300;51.874;8.430;2023-03-09T11:23:08;44.40;;;40.73;;
4575;SDS011;2300;51.874;8.430;2023-03-09T11:25:49;43.07;;;39.37;;
4575;SDS011;2300;51.874;8.430;2023-03-09T11:28:25;46.17;;;42.17;;
4575;SDS011;2300;51.874;8.430;2023-03-09T11:30:56;45.00;;;41.17;;
4575;SDS011;2300;51.874;8.430;2023-03-09T11:33:25;44.27;;;40.33;;
4575;SDS011;2300;51.874;8.430;2023-03-09T11:35:54;43.50;;;39.93;;
4575;SDS011;2300;51.874;8.430;2023-03-09T11:38:22;46.23;;;42.20;;
4575;SDS011;2300;51.874;8.430;2023-03-09T11:40:57;44.87;;;40.97;;
4575;SDS011;2300;51.874;8.430;2023-03-09T11:43:34;43.57;;;39.83;;
4575;SDS011;2300;51.874;8.430;2023-03-09T11:46:06;44.13;;;40.23;;
4575;SDS011;2300;51.874;8.430;2023-03-09T11:48:38;46.07;;;41.73;;
4575;SDS011;2300;51.874;8.430;2023-03-09T11:51:09;46.37;;;42.07;;
4575;SDS011;2300;51.874;8.430;2023-03-09T11:53:39;47.67;;;43.30;;
4575;SDS011;2300;51.874;8.430;2023-03-09T11:56:13;47.33;;;43.33;;
4575;SDS011;2300;51.874;8.430;2023-03-09T11:58:43;46.83;;;42.73;;
4575;SDS011;2300;51.874;8.430;2023-03-09T12:01:16;48.07;;;43.70;;
4575;SDS011;2300;51.874;8.430;2023-03-09T12:03:49;46.90;;;42.80;;
4575;SDS011;2300;51.874;8.430;2023-03-09T12:06:26;48.63;;;44.37;;
4575;SDS011;2300;51.874;8.430;2023-03-09T12:08:57;50.43;;;45.90;;
4575;SDS011;2300;51.874;8.430;2023-03-09T12:11:36;51.57;;;47.10;;
4575;SDS011;2300;51.874;8.430;2023-03-09T12:14:10;48.57;;;44.37;;
4575;SDS011;2300;51.874;8.430;2023-03-09T12:16:44;49.50;;;45.27;;
4575;SDS011;2300;51.874;8.430;2023-03-09T12:19:14;53.30;;;48.90;;
4575;SDS011;2300;51.874;8.430;2023-03-09T12:21:43;51.50;;;47.00;;
4575;SDS011;2300;51.874;8.430;2023-03-09T12:24:22;50.47;;;46.27;;
4575;SDS011;2300;51.874;8.430;2023-03-09T12:26:59;51.17;;;47.10;;
4575;SDS011;2300;51.874;8.430;2023-03-09T12:29:30;48.87;;;44.47;;
4575;SDS011;2300;51.874;8.430;2023-03-09T12:32:16;51.57;;;47.07;;
4575;SDS011;2300;51.874;8.430;2023-03-09T12:38:21;51.20;;;46.80;;
4575;SDS011;2300;51.874;8.430;2023-03-09T12:40:49;54.87;;;50.17;;
4575;SDS011;2300;51.874;8.430;2023-03-09T12:49:19;49.23;;;45.10;;
4575;SDS011;2300;51.874;8.430;2023-03-09T12:51:58;48.93;;;44.73;;
4575;SDS011;2300;51.874;8.430;2023-03-09T12:54:33;48.57;;;44.57;;
4575;SDS011;2300;51.874;8.430;2023-03-09T12:57:08;49.37;;;45.17;;
4575;SDS011;2300;51.874;8.430;2023-03-09T12:59:38;47.67;;;43.87;;
4575;SDS011;2300;51.874;8.430;2023-03-09T13:05:17;48.30;;;44.37;;
4575;SDS011;2300;51.874;8.430;2023-03-09T13:07:51;46.40;;;42.60;;
4575;SDS011;2300;51.874;8.430;2023-03-09T13:10:21;44.47;;;40.87;;
4575;SDS011;2300;51.874;8.430;2023-03-09T13:12:56;46.10;;;42.40;;
4575;SDS011;2300;51.874;8.430;2023-03-09T13:15:52;46.23;;;42.63;;
4575;SDS011;2300;51.874;8.430;2023-03-09T13:22:15;46.27;;;42.53;;
4575;SDS011;2300;51.874;8.430;2023-03-09T13:24:44;45.80;;;42.30;;
4575;SDS011;2300;51.874;8.430;2023-03-09T13:27:14;46.47;;;42.87;;
4575;SDS011;2300;51.874;8.430;2023-03-09T13:29:45;47.83;;;43.93;;
4575;SDS011;2300;51.874;8.430;2023-03-09T13:32:18;48.87;;;44.93;;
4575;SDS011;2300;51.874;8.430;2023-03-09T13:34:49;52.40;;;48.30;;
4575;SDS011;2300;51.874;8.430;2023-03-09T13:37:18;54.77;;;50.57;;
4575;SDS011;2300;51.874;8.430;2023-03-09T13:39:57;58.70;;;54.23;;
4575;SDS011;2300;51.874;8.430;2023-03-09T13:42:25;62.10;;;57.67;;
4575;SDS011;2300;51.874;8.430;2023-03-09T13:44:53;62.53;;;57.83;;
4575;SDS011;2300;51.874;8.430;2023-03-09T13:47:23;60.90;;;56.57;;
4575;SDS011;2300;51.874;8.430;2023-03-09T13:49:53;61.27;;;56.57;;
4575;SDS011;2300;51.874;8.430;2023-03-09T13:52:22;58.13;;;53.83;;
4575;SDS011;2300;51.874;8.430;2023-03-09T13:54:49;60.70;;;56.03;;
4575;SDS011;2300;51.874;8.430;2023-03-09T13:57:18;61.50;;;56.80;;
4575;SDS011;2300;51.874;8.430;2023-03-09T13:59:49;66.87;;;61.73;;
4575;SDS011;2300;51.874;8.430;2023-03-09T14:02:20;66.90;;;61.77;;
4575;SDS011;2300;51.874;8.430;2023-03-09T14:04:50;67.73;;;62.50;;
4575;SDS011;2300;51.874;8.430;2023-03-09T14:07:29;70.33;;;65.00;;
4575;SDS011;2300;51.874;8.430;2023-03-09T14:09:58;72.53;;;67.33;;
4575;SDS011;2300;51.874;8.430;2023-03-09T14:12:28;72.07;;;66.50;;
4575;SDS011;2300;51.874;8.430;2023-03-09T14:14:58;69.23;;;64.33;;
4575;SDS011;2300;51.874;8.430;2023-03-09T14:17:28;67.73;;;62.63;;
4575;SDS011;2300;51.874;8.430;2023-03-09T14:19:55;74.60;;;69.03;;
4575;SDS011;2300;51.874;8.430;2023-03-09T14:22:26;71.77;;;66.50;;
4575;SDS011;2300;51.874;8.430;2023-03-09T14:24:54;73.17;;;67.80;;
4575;SDS011;2300;51.874;8.430;2023-03-09T14:27:22;72.30;;;66.70;;
4575;SDS011;2300;51.874;8.430;2023-03-09T14:29:50;73.17;;;67.97;;
4575;SDS011;2300;51.874;8.430;2023-03-09T14:32:20;60.73;;;55.83;;
4575;SDS011;2300;51.874;8.430;2023-03-09T14:34:50;75.00;;;69.50;;
4575;SDS011;2300;51.874;8.430;2023-03-09T14:37:22;68.77;;;63.43;;
4575;SDS011;2300;51.874;8.430;2023-03-09T14:39:51;71.10;;;65.87;;
4575;SDS011;2300;51.874;8.430;2023-03-09T14:42:23;70.47;;;65.07;;
4575;SDS011;2300;51.874;8.430;2023-03-09T14:44:59;71.67;;;66.20;;
4575;SDS011;2300;51.874;8.430;2023-03-09T14:47:34;70.10;;;64.80;;
4575;SDS011;2300;51.874;8.430;2023-03-09T14:50:03;69.80;;;64.60;;
4575;SDS011;2300;51.874;8.430;2023-03-09T14:52:31;71.60;;;65.90;;
4575;SDS011;2300;51.874;8.430;2023-03-09T14:55:01;76.70;;;70.63;;
4575;SDS011;2300;51.874;8.430;2023-03-09T14:57:28;80.67;;;74.57;;
4575;SDS011;2300;51.874;8.430;2023-03-09T14:59:55;87.50;;;81.13;;
4575;SDS011;2300;51.874;8.430;2023-03-09T15:02:21;90.07;;;83.57;;
4575;SDS011;2300;51.874;8.430;2023-03-09T15:04:48;91.63;;;85.30;;
4575;SDS011;2300;51.874;8.430;2023-03-09T15:07:16;94.70;;;88.13;;